Normandy Beach, New Jersey
Current Conditions -  °F | °C
As of 12:35 AM on Sunday 26 Oct 2014 (Local Time) from KBLM Reporting Station
Clear Clear  
Wind Chill: 57°   Ceiling: Unl
Heat Index: 57°   Visibility: 10mi
Dew Point: 41°   Wind: 12mph
Humidity: 55%   Direction: 230°SW
Pressure: 29.58"   Gusts: 16mph
Location:  40°N, 74.06°W
Report Text: KBLM 260435Z AUTO 23010G14KT 10SM CLR 14/05 A2958 RMK AO1
Loading
Personal Weather Stations






























Interactive Weather Map
Tropical Storm Tracking
New forecast layout! Learn more

10-Day Weather Forecast

Advertisements
Track Severe Weather on mobile